Time;durP1;ratioP1;P1;durP2;ratioP2;P2;SDS_P1;SDS_P2;PMS_P1;PMS_P2;Temp;Humidity;BMP_temperature;BMP_pressure;BME280_temperature;BME280_humidity;BME280_pressure;Samples;Min_cycle;Max_cycle;Signal;HPM_P1;HPM_P2
2023/11/24 00:00:09;;;;;;;3.75;2.35;;;;;;;6.36;100.00;93031.00;2096380;28;20390;-80
2023/11/24 00:01:12;;;;;;;2.70;2.50;;;;;;;6.46;100.00;93034.75;2115612;28;20027;-79
2023/11/24 00:02:14;;;;;;;5.07;2.10;;;;;;;6.43;100.00;93024.91;2105066;28;20023;-81
2023/11/24 00:03:15;;;;;;;6.10;3.00;;;;;;;6.44;100.00;93018.44;2105330;28;20020;-79
2023/11/24 00:04:16;;;;;;;3.28;2.70;;;;;;;6.40;100.00;93013.16;2104193;28;20126;-80
2023/11/24 00:05:17;;;;;;;3.47;2.45;;;;;;;6.23;100.00;93014.81;2097579;28;20032;-79
2023/11/24 00:06:19;;;;;;;4.15;2.60;;;;;;;6.27;100.00;93012.09;2106699;28;20514;-80
2023/11/24 00:07:43;;;;;;;3.08;2.42;;;;;;;6.26;100.00;93018.56;2111249;28;20396;-79
2023/11/24 00:08:44;;;;;;;3.25;2.25;;;;;;;6.34;100.00;93017.38;2100320;28;20024;-78
2023/11/24 00:09:49;;;;;;;4.63;3.03;;;;;;;6.39;100.00;93019.59;2098425;28;20020;-79
2023/11/24 00:11:27;;;;;;;3.63;2.33;;;;;;;6.42;100.00;93023.41;2106699;28;20024;-79
2023/11/24 00:12:43;;;;;;;2.65;2.40;;;;;;;6.34;100.00;93022.69;2102529;28;20014;-80
2023/11/24 00:13:44;;;;;;;5.25;2.67;;;;;;;6.38;100.00;93026.06;2106373;28;20039;-79
2023/11/24 00:14:45;;;;;;;2.60;2.30;;;;;;;6.44;100.00;93024.50;2114047;28;20047;-77
2023/11/24 00:15:46;;;;;;;4.28;2.85;;;;;;;6.50;100.00;93028.25;2114030;28;20062;-80
2023/11/24 00:16:47;;;;;;;4.88;2.55;;;;;;;6.42;100.00;93023.41;2114715;28;20024;-80
2023/11/24 00:17:50;;;;;;;3.38;2.42;;;;;;;6.66;100.00;93024.31;2115145;28;20677;-80
2023/11/24 00:18:51;;;;;;;3.15;2.60;;;;;;;6.69;100.00;93021.66;2114329;28;20023;-80
2023/11/24 00:19:52;;;;;;;3.03;2.47;;;;;;;6.43;100.00;93025.66;2104480;28;20020;-78
2023/11/24 00:20:55;;;;;;;5.60;2.65;;;;;;;6.54;100.00;93022.91;2106704;28;20048;-79
2023/11/24 00:21:56;;;;;;;4.07;2.30;;;;;;;6.56;100.00;93028.59;2106617;28;20031;-77
2023/11/24 00:22:57;;;;;;;4.78;2.47;;;;;;;6.56;100.00;93032.00;2106576;28;20104;-79
2023/11/24 00:24:00;;;;;;;4.40;2.40;;;;;;;6.61;100.00;93014.13;2113367;28;20019;-81
2023/11/24 00:25:00;;;;;;;3.20;2.90;;;;;;;6.49;100.00;93020.66;2118890;27;20023;-80
2023/11/24 00:26:07;;;;;;;4.57;2.40;;;;;;;6.31;100.00;93026.88;2102567;28;20040;-79
2023/11/24 00:27:08;;;;;;;3.50;2.70;;;;;;;6.16;100.00;93017.50;2103241;28;20502;-78
2023/11/24 00:28:18;;;;;;;3.75;2.60;;;;;;;6.23;100.00;93020.13;2106242;28;20020;-79
2023/11/24 00:29:21;;;;;;;;;;;;;;;6.22;100.00;93017.84;2110381;27;20020;-76
2023/11/24 00:30:22;;;;;;;2.63;2.40;;;;;;;6.34;100.00;93013.97;2109188;28;19965;-78
2023/11/24 00:31:24;;;;;;;3.15;2.55;;;;;;;6.41;100.00;93021.88;2105168;28;20024;-77
2023/11/24 00:32:25;;;;;;;2.83;2.55;;;;;;;6.30;100.00;93019.31;2068878;28;20089;-79
2023/11/24 00:33:28;;;;;;;7.05;2.88;;;;;;;6.35;100.00;93013.56;2013615;28;20907;-78
2023/11/24 00:34:30;;;;;;;4.10;2.72;;;;;;;6.24;100.00;93007.59;2025965;28;20038;-77
2023/11/24 00:35:32;;;;;;;3.50;2.63;;;;;;;6.27;100.00;93014.75;2022472;28;23301;-78
2023/11/24 00:36:34;;;;;;;3.72;2.40;;;;;;;6.13;100.00;93017.53;2035503;28;20061;-79
2023/11/24 00:37:35;;;;;;;3.15;2.67;;;;;;;6.22;100.00;93013.28;2048643;28;20028;-78
2023/11/24 00:38:36;;;;;;;4.10;2.53;;;;;;;6.30;100.00;93003.38;2060636;27;20039;-78
2023/11/24 00:39:37;;;;;;;3.50;2.30;;;;;;;6.29;100.00;93007.19;2063131;27;20146;-76
2023/11/24 00:40:40;;;;;;;3.83;2.50;;;;;;;6.39;100.00;93000.28;2063569;27;20041;-79
2023/11/24 00:41:41;;;;;;;3.00;2.55;;;;;;;6.34;100.00;93000.69;2064419;27;20483;-78
2023/11/24 00:42:43;;;;;;;3.38;2.30;;;;;;;6.15;100.00;93010.69;2082969;27;20031;-77
2023/11/24 00:43:45;;;;;;;4.70;2.33;;;;;;;6.29;100.00;92989.34;2081751;28;20028;-80
2023/11/24 00:44:46;;;;;;;2.95;2.53;;;;;;;6.33;100.00;92985.94;2083613;28;20401;-78
2023/11/24 00:46:24;;;;;;;3.40;2.30;;;;;;;6.19;100.00;92992.06;2101266;28;20059;-78
2023/11/24 00:47:26;;;;;;;4.65;2.28;;;;;;;6.22;100.00;92992.06;2107168;28;20102;-79
2023/11/24 00:48:28;;;;;;;4.63;2.50;;;;;;;6.14;100.00;92990.59;2102560;28;20016;-78
2023/11/24 00:49:47;;;;;;;3.03;2.20;;;;;;;6.20;100.00;92996.25;2111262;27;20127;-79
2023/11/24 00:50:50;;;;;;;3.78;2.22;;;;;;;6.26;100.00;92997.34;2122292;27;20027;-80
2023/11/24 00:51:54;;;;;;;3.00;2.30;;;;;;;6.29;100.00;92996.56;2115000;28;20024;-81
2023/11/24 00:52:55;;;;;;;4.57;2.40;;;;;;;6.61;100.00;92985.66;2114205;28;20456;-80
2023/11/24 00:53:56;;;;;;;3.03;2.20;;;;;;;6.69;100.00;92983.72;2106483;28;20031;-80
2023/11/24 00:54:57;;;;;;;2.05;1.90;;;;;;;6.51;100.00;92975.91;2106844;27;20516;-79
2023/11/24 00:55:59;;;;;;;4.68;2.20;;;;;;;6.60;100.00;92970.13;2123805;27;20015;-80
2023/11/24 00:57:00;;;;;;;4.82;2.20;;;;;;;6.50;100.00;92979.72;2118795;27;20018;-78
2023/11/24 00:58:01;;;;;;;3.40;2.00;;;;;;;6.50;100.00;92974.41;2106371;28;20077;-78
2023/11/24 00:59:02;;;;;;;3.67;2.03;;;;;;;6.53;100.00;92973.59;2089920;28;20019;-80
2023/11/24 01:00:07;;;;;;;3.85;2.08;;;;;;;6.71;100.00;92978.75;2104883;28;20023;-80
2023/11/24 01:01:09;;;;;;;6.30;2.10;;;;;;;6.54;100.00;92969.78;2105765;28;20774;-78
2023/11/24 01:02:10;;;;;;;2.10;1.90;;;;;;;6.44;100.00;92962.69;2103679;28;20445;-78
2023/11/24 01:05:09;;;;;;;2.03;1.75;;;;;;;6.39;100.00;92958.56;2119205;27;20470;-77
2023/11/24 01:06:58;;;;;;;3.33;1.73;;;;;;;6.44;100.00;92958.13;2123561;27;20027;-79
2023/11/24 01:07:59;;;;;;;2.17;1.80;;;;;;;6.48;100.00;92950.13;2109812;28;20020;-78
2023/11/24 01:09:00;;;;;;;2.83;1.67;;;;;;;6.44;100.00;92944.09;2101383;28;20038;-79
2023/11/24 01:10:24;;;;;;;1.90;1.75;;;;;;;6.45;100.00;92943.72;2118081;27;20110;-80
2023/11/24 01:11:25;;;;;;;2.05;1.65;;;;;;;6.50;100.00;92942.53;2104040;28;20917;-79
2023/11/24 01:12:25;;;;;;;2.08;1.80;;;;;;;6.55;100.00;92952.72;2089837;28;20063;-80
2023/11/24 01:13:26;;;;;;;3.38;1.77;;;;;;;6.54;100.00;92948.53;2098181;28;20028;-79
2023/11/24 01:14:27;;;;;;;2.63;1.73;;;;;;;6.56;100.00;92949.69;2110860;28;20020;-80
2023/11/24 01:15:28;;;;;;;2.67;1.95;;;;;;;6.51;100.00;92936.84;2112750;28;20065;-78
2023/11/24 01:16:29;;;;;;;1.80;1.60;;;;;;;6.47;100.00;92946.72;2101220;28;20404;-80
2023/11/24 01:17:30;;;;;;;2.63;1.73;;;;;;;6.49;100.00;92941.00;2013662;28;20449;-79
2023/11/24 01:18:35;;;;;;;2.35;1.80;;;;;;;6.43;100.00;92942.59;2022346;28;20114;-79
2023/11/24 01:19:37;;;;;;;2.40;1.65;;;;;;;6.57;100.00;92945.88;2022827;28;20040;-79
2023/11/24 01:20:38;;;;;;;3.25;1.90;;;;;;;6.43;100.00;92942.59;2032061;28;20701;-80
2023/11/24 01:21:39;;;;;;;2.67;1.92;;;;;;;6.43;100.00;92934.63;2030778;28;21360;-78
2023/11/24 01:22:40;;;;;;;2.90;1.92;;;;;;;6.42;100.00;92941.09;2033093;28;20104;-77
2023/11/24 01:23:41;;;;;;;2.60;1.98;;;;;;;6.42;100.00;92947.16;2038824;28;20089;-78
2023/11/24 01:24:44;;;;;;;2.97;1.48;;;;;;;6.42;100.00;92935.78;2045344;27;20056;-79
2023/11/24 01:25:46;;;;;;;1.75;1.55;;;;;;;6.23;100.00;92942.38;2048377;27;20032;-79
2023/11/24 01:26:48;;;;;;;5.13;1.90;;;;;;;6.36;100.00;92943.41;2056106;27;20142;-76
2023/11/24 01:27:49;;;;;;;2.83;1.83;;;;;;;6.51;100.00;92944.03;2049300;28;20031;-77
2023/11/24 01:28:50;;;;;;;2.47;1.50;;;;;;;6.25;100.00;92943.50;2042377;28;20099;-79
2023/11/24 01:29:51;;;;;;;2.42;1.98;;;;;;;6.21;100.00;92939.38;2048031;28;20120;-79
2023/11/24 01:30:52;;;;;;;2.80;2.08;;;;;;;6.12;100.00;92955.00;2056771;28;20067;-78
2023/11/24 01:31:53;;;;;;;3.90;1.88;;;;;;;6.30;100.00;92942.31;2074664;28;20046;-78
2023/11/24 01:32:54;;;;;;;1.95;1.50;;;;;;;6.33;100.00;92943.47;2092429;27;21601;-79
2023/11/24 01:33:55;;;;;;;3.35;1.60;;;;;;;6.39;100.00;92947.19;2084606;28;20031;-77
2023/11/24 01:34:56;;;;;;;3.85;1.52;;;;;;;6.37;100.00;92946.84;2086453;28;20024;-77
2023/11/24 01:35:58;;;;;;;2.08;1.90;;;;;;;6.23;100.00;92937.06;2092457;28;21213;-79
2023/11/24 01:36:59;;;;;;;2.47;1.60;;;;;;;6.08;100.00;92938.34;2100430;28;20012;-79
2023/11/24 01:38:00;;;;;;;5.18;3.17;;;;;;;6.22;100.00;92930.25;2111717;28;20023;-80
2023/11/24 01:39:02;;;;;;;2.67;1.50;;;;;;;6.28;100.00;92921.50;2106248;28;20472;-79
2023/11/24 01:40:05;;;;;;;3.10;1.38;;;;;;;6.35;100.00;92925.22;2098625;28;20075;-79
2023/11/24 01:41:06;;;;;;;2.97;1.20;;;;;;;6.43;100.00;92919.44;2096028;28;20051;-78
2023/11/24 01:42:19;;;;;;;1.35;1.20;;;;;;;6.39;100.00;92912.66;2112393;27;20028;-78
2023/11/24 01:43:20;;;;;;;2.10;1.17;;;;;;;6.38;100.00;92911.16;2121212;27;20019;-78
2023/11/24 01:44:22;;;;;;;2.42;1.20;;;;;;;6.44;100.00;92912.25;2120817;27;20054;-79
2023/11/24 01:45:23;;;;;;;1.30;1.10;;;;;;;6.42;100.00;92907.34;2114413;28;20070;-77
2023/11/24 01:46:25;;;;;;;2.75;1.60;;;;;;;6.45;100.00;92901.25;2106036;28;20045;-78
2023/11/24 01:47:26;;;;;;;2.20;1.85;;;;;;;6.30;100.00;92899.84;2111352;28;20073;-77
2023/11/24 01:48:29;;;;;;;3.22;1.58;;;;;;;6.39;100.00;92894.09;2120963;27;20102;-79
2023/11/24 01:49:30;;;;;;;2.03;1.30;;;;;;;6.44;100.00;92886.44;2123595;27;20022;-80
2023/11/24 01:50:32;;;;;;;3.15;1.20;;;;;;;6.54;100.00;92874.97;2109685;28;20019;-80
2023/11/24 01:51:33;;;;;;;1.38;0.90;;;;;;;6.56;100.00;92875.31;2106001;28;20012;-79
2023/11/24 01:52:35;;;;;;;1.10;1.00;;;;;;;6.57;100.00;92876.81;2092018;28;20481;-79
2023/11/24 01:53:36;;;;;;;2.00;1.00;;;;;;;6.19;100.00;92875.31;2098199;28;20469;-78
2023/11/24 01:54:37;;;;;;;1.52;1.30;;;;;;;6.25;100.00;92879.81;2111072;27;20073;-78
2023/11/24 01:55:40;;;;;;;1.85;1.00;;;;;;;6.43;100.00;92874.31;2106211;28;20544;-78
2023/11/24 01:56:41;;;;;;;2.03;1.10;;;;;;;6.48;100.00;92865.91;2103907;28;20098;-79
2023/11/24 01:57:42;;;;;;;1.98;0.95;;;;;;;6.49;100.00;92870.06;2109994;28;20053;-78
2023/11/24 01:58:44;;;;;;;1.23;1.13;;;;;;;6.48;100.00;92876.53;2110622;27;20532;-79
2023/11/24 01:59:45;;;;;;;1.52;1.10;;;;;;;6.56;100.00;92883.28;2113219;28;20362;-78
2023/11/24 02:00:46;;;;;;;0.93;0.80;;;;;;;6.49;100.00;92878.03;2098942;28;20038;-78
2023/11/24 02:01:51;;;;;;;3.08;0.98;;;;;;;6.52;100.00;92887.13;2111816;28;20020;-79
2023/11/24 02:02:52;;;;;;;2.45;1.00;;;;;;;6.54;100.00;92882.94;2099981;28;20028;-78
2023/11/24 02:03:55;;;;;;;2.38;0.80;;;;;;;6.67;100.00;92885.06;2097696;28;20048;-79
2023/11/24 02:04:56;;;;;;;2.40;1.33;;;;;;;6.74;100.00;92879.69;2109539;28;20032;-79
2023/11/24 02:05:57;;;;;;;3.17;0.95;;;;;;;6.91;100.00;92892.03;2101808;28;20023;-78
2023/11/24 02:07:00;;;;;;;2.25;1.00;;;;;;;7.02;100.00;92881.25;2094137;28;20021;-79
2023/11/24 02:08:01;;;;;;;0.70;0.70;;;;;;;6.93;100.00;92879.06;2102958;28;20028;-77
2023/11/24 02:09:02;;;;;;;2.88;0.95;;;;;;;6.78;100.00;92883.06;2097526;28;20020;-79
2023/11/24 02:10:04;;;;;;;2.13;0.90;;;;;;;6.75;100.00;92881.19;2097533;28;20020;-78
2023/11/24 02:11:05;;;;;;;0.98;0.82;;;;;;;6.89;100.00;92874.97;2112777;28;20027;-79
2023/11/24 02:12:07;;;;;;;3.58;1.00;;;;;;;6.73;100.00;92872.88;2113639;28;20016;-79
2023/11/24 02:13:08;;;;;;;3.03;0.80;;;;;;;6.67;100.00;92861.94;2095289;28;20028;-78
2023/11/24 02:14:09;;;;;;;0.75;0.70;;;;;;;6.66;100.00;92868.38;2094495;28;20024;-77
2023/11/24 02:15:10;;;;;;;1.10;0.82;;;;;;;6.50;100.00;92866.28;2099425;28;20031;-79
2023/11/24 02:16:11;;;;;;;3.25;1.02;;;;;;;6.68;100.00;92874.06;2113851;28;20380;-79
2023/11/24 02:17:12;;;;;;;1.67;0.80;;;;;;;6.81;100.00;92866.34;2115800;27;20028;-78
2023/11/24 02:18:13;;;;;;;1.02;0.70;;;;;;;6.88;100.00;92862.84;2105757;28;20097;-78
2023/11/24 02:19:14;;;;;;;1.80;1.10;;;;;;;6.91;100.00;92865.44;2105779;28;20034;-78
2023/11/24 02:20:16;;;;;;;0.50;0.50;;;;;;;7.01;100.00;92867.22;2105629;28;20574;-78
2023/11/24 02:21:17;;;;;;;0.73;0.70;;;;;;;6.97;100.00;92877.13;2108103;28;20028;-78
2023/11/24 02:24:24;;;;;;;;;;;;;;;5.97;100.00;92872.84;2148728;27;20121;-77
2023/11/24 02:25:25;;;;;;;0.68;0.68;;;;;;;6.07;100.00;92867.84;2143190;27;19911;-78
2023/11/24 02:26:26;;;;;;;2.38;0.68;;;;;;;6.06;100.00;92875.06;2134706;27;20548;-78
2023/11/24 02:27:27;;;;;;;0.57;0.57;;;;;;;6.22;100.00;92877.94;2139337;27;20030;-79
2023/11/24 02:28:28;;;;;;;1.75;0.90;;;;;;;6.36;100.00;92878.94;2127579;27;20752;-79
2023/11/24 02:29:29;;;;;;;1.55;0.73;;;;;;;6.35;100.00;92877.44;2125037;27;20019;-79
2023/11/24 02:30:30;;;;;;;0.60;0.60;;;;;;;6.19;100.00;92880.59;2139041;27;20026;-79
2023/11/24 02:31:32;;;;;;;1.27;0.60;;;;;;;6.26;100.00;92867.28;2133808;27;20057;-79
2023/11/24 02:32:33;;;;;;;0.85;0.50;;;;;;;6.51;100.00;92859.09;2122310;27;20019;-78
2023/11/24 02:33:34;;;;;;;0.80;0.70;;;;;;;6.37;100.00;92867.94;2122668;27;20019;-79
2023/11/24 02:34:35;;;;;;;2.53;0.73;;;;;;;6.41;100.00;92855.41;2130591;27;20026;-80
2023/11/24 02:35:37;;;;;;;4.55;0.65;;;;;;;6.39;100.00;92862.22;2119362;28;20016;-77
2023/11/24 02:36:42;;;;;;;2.45;0.70;;;;;;;6.30;100.00;92862.69;2118675;27;20111;-78
2023/11/24 02:37:43;;;;;;;0.95;0.70;;;;;;;6.39;100.00;92862.22;2118934;28;20020;-79
2023/11/24 02:38:46;;;;;;;0.65;0.55;;;;;;;6.33;100.00;92867.22;2110821;28;20439;-78
2023/11/24 02:39:47;;;;;;;0.90;0.65;;;;;;;6.28;100.00;92854.38;2108793;28;20020;-78
2023/11/24 02:40:49;;;;;;;2.35;0.70;;;;;;;6.48;100.00;92847.34;2107844;28;20063;-80
2023/11/24 02:41:50;;;;;;;2.63;1.17;;;;;;;6.52;100.00;92852.63;2119496;28;20088;-79
2023/11/24 02:42:51;;;;;;;0.63;0.63;;;;;;;6.51;100.00;92848.47;2121096;28;20460;-79
2023/11/24 02:44:07;;;;;;;1.77;0.80;;;;;;;6.35;100.00;92849.00;2112935;28;20142;-78
2023/11/24 02:45:09;;;;;;;0.88;0.75;;;;;;;6.28;100.00;92857.03;2118636;27;20019;-79
2023/11/24 02:46:13;;;;;;;1.60;0.70;;;;;;;6.34;100.00;92844.84;2130373;27;20063;-79
2023/11/24 02:47:18;;;;;;;1.08;0.68;;;;;;;6.24;100.00;92843.81;2129636;27;20037;-79
2023/11/24 02:48:19;;;;;;;0.98;0.73;;;;;;;6.25;100.00;92842.66;2113866;28;20020;-79
2023/11/24 02:49:19;;;;;;;0.70;0.60;;;;;;;6.30;100.00;92844.13;2107529;28;20753;-78
2023/11/24 02:50:22;;;;;;;1.23;0.60;;;;;;;6.06;100.00;92840.56;2119948;28;20490;-78
2023/11/24 02:51:24;;;;;;;2.03;0.65;;;;;;;5.99;100.00;92841.38;2116637;28;20438;-78
2023/11/24 02:52:25;;;;;;;0.80;0.60;;;;;;;6.06;100.00;92843.22;2115175;28;20131;-77
2023/11/24 02:53:26;;;;;;;0.88;0.70;;;;;;;6.05;100.00;92833.72;2128949;27;20019;-78
2023/11/24 02:54:27;;;;;;;0.60;0.60;;;;;;;5.89;100.00;92820.97;2130498;27;20018;-78
2023/11/24 02:55:28;;;;;;;1.42;0.73;;;;;;;5.87;100.00;92822.50;2130568;27;20019;-79
2023/11/24 02:56:29;;;;;;;0.70;0.60;;;;;;;5.89;100.00;92820.97;2116773;28;20478;-78
2023/11/24 02:57:30;;;;;;;1.00;0.77;;;;;;;5.88;100.00;92824.75;2118903;28;20023;-79
2023/11/24 02:58:32;;;;;;;1.65;0.70;;;;;;;5.95;100.00;92824.72;2120314;28;20072;-79
2023/11/24 02:59:34;;;;;;;0.70;0.70;;;;;;;5.93;100.00;92818.34;2115662;28;20019;-79
2023/11/24 03:00:36;;;;;;;0.90;0.80;;;;;;;5.80;100.00;92818.03;2112445;28;20111;-80
2023/11/24 03:01:36;;;;;;;1.67;0.82;;;;;;;5.98;100.00;92813.34;2105891;28;20028;-79
2023/11/24 03:02:38;;;;;;;1.08;0.63;;;;;;;5.94;100.00;92811.88;2108430;28;20016;-79
2023/11/24 03:03:39;;;;;;;0.57;0.55;;;;;;;5.99;100.00;92814.84;2114056;27;20558;-79
2023/11/24 03:04:40;;;;;;;0.75;0.60;;;;;;;5.91;100.00;92813.38;2118212;27;20027;-78
2023/11/24 03:05:41;;;;;;;1.83;0.80;;;;;;;6.24;100.00;92803.25;2116630;28;20701;-79
2023/11/24 03:06:43;;;;;;;0.60;0.60;;;;;;;6.24;100.00;92806.66;2119675;27;20031;-80
2023/11/24 03:07:44;;;;;;;1.40;0.60;;;;;;;6.20;100.00;92807.84;2112576;28;20103;-79
2023/11/24 03:08:45;;;;;;;0.82;0.50;;;;;;;6.05;100.00;92800.00;2108385;28;20396;-79
2023/11/24 03:09:46;;;;;;;2.17;0.68;;;;;;;5.96;100.00;92805.00;2121728;28;20099;-80
2023/11/24 03:10:47;;;;;;;1.52;0.80;;;;;;;5.98;100.00;92812.59;2129709;27;20659;-80
2023/11/24 03:11:48;;;;;;;1.83;0.60;;;;;;;5.93;100.00;92807.72;2112681;28;20116;-78
2023/11/24 03:12:49;;;;;;;0.70;0.70;;;;;;;5.94;100.00;92796.72;2110012;28;20019;-79
2023/11/24 03:13:50;;;;;;;0.82;0.70;;;;;;;6.03;100.00;92796.25;2126997;27;20019;-80
2023/11/24 03:14:53;;;;;;;1.48;0.50;;;;;;;5.87;100.00;92796.72;2132517;27;20029;-79
2023/11/24 03:15:54;;;;;;;0.50;0.50;;;;;;;6.12;100.00;92793.88;2113726;27;20054;-79
2023/11/24 03:16:58;;;;;;;1.65;0.43;;;;;;;6.08;100.00;92792.41;2023232;28;20024;-77
2023/11/24 03:17:59;;;;;;;0.70;0.60;;;;;;;6.04;100.00;92803.06;2026504;28;21098;-79
2023/11/24 03:19:00;;;;;;;0.73;0.50;;;;;;;6.04;100.00;92798.50;2044727;27;20027;-78
2023/11/24 03:20:01;;;;;;;0.65;0.65;;;;;;;6.07;100.00;92789.00;2057293;27;23546;-80
2023/11/24 03:21:02;;;;;;;0.57;0.57;;;;;;;6.18;100.00;92799.50;2053970;27;20035;-79
2023/11/24 03:22:03;;;;;;;0.52;0.52;;;;;;;6.22;100.00;92795.66;2070383;27;20028;-79
2023/11/24 03:23:04;;;;;;;0.50;0.50;;;;;;;6.29;100.00;92792.19;2073088;27;20023;-78
2023/11/24 03:24:06;;;;;;;0.40;0.40;;;;;;;6.38;100.00;92795.13;2068502;28;20757;-78
2023/11/24 03:25:08;;;;;;;0.50;0.50;;;;;;;6.49;100.00;92787.03;2076188;27;20023;-79
2023/11/24 03:26:09;;;;;;;0.47;0.40;;;;;;;6.48;100.00;92788.94;2083877;28;20590;-79
2023/11/24 03:27:10;;;;;;;0.68;0.50;;;;;;;6.82;100.00;92788.91;2086364;28;22084;-78
2023/11/24 03:28:13;;;;;;;1.20;0.40;;;;;;;6.71;100.00;92792.81;2104432;27;20113;-78
2023/11/24 03:29:14;;;;;;;0.50;0.50;;;;;;;6.60;100.00;92789.56;2114467;27;20027;-78
2023/11/24 03:30:15;;;;;;;0.63;0.43;;;;;;;6.56;100.00;92793.00;2116884;28;20143;-78
2023/11/24 03:31:16;;;;;;;0.40;0.40;;;;;;;6.45;100.00;92786.31;2125814;27;20029;-79
2023/11/24 03:32:17;;;;;;;0.47;0.40;;;;;;;6.38;100.00;92784.50;2128528;27;20053;-78
2023/11/24 03:33:20;;;;;;;0.93;0.50;;;;;;;6.37;100.00;92777.69;2110880;28;20016;-78
2023/11/24 03:34:21;;;;;;;1.60;0.60;;;;;;;6.44;100.00;92784.81;2104186;28;20122;-79
2023/11/24 03:35:22;;;;;;;0.80;0.52;;;;;;;6.51;100.00;92787.41;2092836;28;20025;-80
2023/11/24 03:36:23;;;;;;;0.40;0.40;;;;;;;6.70;100.00;92778.81;2112928;27;20024;-79
2023/11/24 03:37:25;;;;;;;0.40;0.40;;;;;;;6.62;100.00;92779.28;2123701;27;20051;-79
2023/11/24 03:38:26;;;;;;;1.30;0.40;;;;;;;6.46;100.00;92777.97;2124434;27;20022;-78
2023/11/24 03:39:27;;;;;;;0.30;0.30;;;;;;;6.45;100.00;92773.81;2101875;28;20064;-80
2023/11/24 03:40:28;;;;;;;0.55;0.32;;;;;;;6.36;100.00;92770.84;2098114;28;20461;-78
2023/11/24 03:41:29;;;;;;;2.50;0.35;;;;;;;6.36;100.00;92773.50;2122547;27;20099;-80
2023/11/24 03:42:30;;;;;;;0.38;0.38;;;;;;;6.54;100.00;92773.31;2130101;27;20014;-81
2023/11/24 03:43:31;;;;;;;0.95;0.30;;;;;;;6.68;100.00;92769.75;2120087;27;20019;-80
2023/11/24 03:44:32;;;;;;;0.30;0.30;;;;;;;6.68;100.00;92759.13;2098507;28;20027;-78
2023/11/24 03:45:32;;;;;;;0.40;0.40;;;;;;;6.27;100.00;92755.41;2107361;28;20043;-80
2023/11/24 03:46:33;;;;;;;0.30;0.30;;;;;;;6.23;100.00;92748.63;2114494;28;20027;-80
2023/11/24 03:47:35;;;;;;;0.30;0.30;;;;;;;6.27;100.00;92752.00;2103961;28;20012;-80
2023/11/24 03:48:36;;;;;;;0.43;0.30;;;;;;;6.17;100.00;92750.97;2119606;27;20107;-80
2023/11/24 03:49:37;;;;;;;1.73;0.35;;;;;;;6.42;100.00;92747.31;2127498;27;20019;-79
2023/11/24 03:50:38;;;;;;;0.30;0.30;;;;;;;6.54;100.00;92750.19;2106876;28;20032;-82
2023/11/24 03:51:38;;;;;;;0.40;0.40;;;;;;;6.45;100.00;92743.84;2094335;28;20021;-80
2023/11/24 03:52:40;;;;;;;0.55;0.40;;;;;;;6.53;100.00;92743.34;2105259;28;20020;-80
2023/11/24 03:53:40;;;;;;;0.90;0.30;;;;;;;6.47;100.00;92742.28;2102354;28;20028;-78
2023/11/24 03:54:43;;;;;;;0.30;0.30;;;;;;;6.50;100.00;92743.41;2113141;28;20615;-80
2023/11/24 03:55:44;;;;;;;0.30;0.30;;;;;;;6.64;100.00;92734.50;2117991;27;20023;-78
2023/11/24 03:56:44;;;;;;;0.30;0.30;;;;;;;6.61;100.00;92730.75;2120330;27;20415;-81
2023/11/24 03:57:46;;;;;;;1.10;0.40;;;;;;;6.55;100.00;92725.13;2113493;28;20556;-78
2023/11/24 03:58:47;;;;;;;0.28;0.28;;;;;;;6.62;100.00;92731.50;2036738;28;20078;-79
2023/11/24 03:59:48;;;;;;;0.30;0.30;;;;;;;6.62;100.00;92731.50;2029842;27;21771;-79
2023/11/24 04:00:49;;;;;;;0.30;0.30;;;;;;;6.53;100.00;92722.09;2037961;27;20111;-79
2023/11/24 04:01:50;;;;;;;0.20;0.20;;;;;;;6.55;100.00;92719.81;2041277;28;20086;-80
2023/11/24 04:02:51;;;;;;;0.30;0.30;;;;;;;6.45;100.00;92723.38;2048985;28;20024;-80
2023/11/24 04:03:54;;;;;;;1.33;0.30;;;;;;;6.37;100.00;92726.50;2054045;28;20033;-80
2023/11/24 04:04:56;;;;;;;0.20;0.20;;;;;;;6.43;100.00;92725.66;2058337;27;20400;-79
2023/11/24 04:05:57;;;;;;;1.10;0.40;;;;;;;6.45;100.00;92723.38;2060446;27;20042;-78
2023/11/24 04:07:00;;;;;;;0.30;0.30;;;;;;;6.52;100.00;92722.50;2062628;28;20038;-78
2023/11/24 04:08:02;;;;;;;1.17;1.08;;;;;;;6.43;100.00;92724.91;2067668;28;20519;-79
2023/11/24 04:09:04;;;;;;;1.27;0.20;;;;;;;6.40;100.00;92728.34;2071656;28;20024;-80
2023/11/24 04:10:07;;;;;;;0.20;0.20;;;;;;;6.61;100.00;92717.47;2074825;28;20069;-82
2023/11/24 04:11:09;;;;;;;0.20;0.20;;;;;;;6.59;100.00;92719.03;2072093;28;21730;-81
2023/11/24 04:12:10;;;;;;;0.20;0.20;;;;;;;6.66;100.00;92718.91;2097437;27;20032;-80
2023/11/24 04:13:11;;;;;;;0.25;0.25;;;;;;;6.74;100.00;92705.13;2110523;27;20034;-80
2023/11/24 04:14:12;;;;;;;0.30;0.30;;;;;;;6.66;100.00;92706.38;2119352;27;20434;-80
2023/11/24 04:15:13;;;;;;;0.30;0.30;;;;;;;6.82;100.00;92701.22;2110590;28;20020;-80
2023/11/24 04:16:14;;;;;;;1.17;0.20;;;;;;;6.67;100.00;92694.63;2112874;28;20028;-76
2023/11/24 04:17:15;;;;;;;0.75;0.25;;;;;;;6.52;100.00;92695.97;2119304;27;20047;-79
2023/11/24 04:18:16;;;;;;;0.30;0.30;;;;;;;6.59;100.00;92695.13;2114676;28;20023;-80
2023/11/24 04:19:17;;;;;;;0.35;0.30;;;;;;;6.43;100.00;92690.41;2098214;28;20039;-81
2023/11/24 04:20:18;;;;;;;0.40;0.40;;;;;;;6.56;100.00;92700.06;2106590;28;20044;-79
2023/11/24 04:21:19;;;;;;;0.68;0.30;;;;;;;6.55;100.00;92689.88;2101130;28;20149;-82
2023/11/24 04:22:21;;;;;;;0.40;0.20;;;;;;;6.57;100.00;92698.91;2106353;28;20012;-79
2023/11/24 04:23:22;;;;;;;5.60;0.90;;;;;;;6.54;100.00;92694.44;2112644;28;20026;-79
2023/11/24 04:24:23;;;;;;;0.20;0.20;;;;;;;6.47;100.00;92697.16;2114763;28;20047;-79
2023/11/24 04:25:24;;;;;;;0.75;0.20;;;;;;;6.47;100.00;92686.53;2114813;28;20015;-80
2023/11/24 04:28:23;;;;;;;0.20;0.20;;;;;;;6.70;100.00;92687.75;2122115;27;20015;-78
2023/11/24 04:29:24;;;;;;;0.20;0.20;;;;;;;6.67;100.00;92684.00;2122011;27;20015;-78
2023/11/24 04:30:26;;;;;;;0.43;0.30;;;;;;;6.80;100.00;92687.63;2118753;27;20020;-77
2023/11/24 04:31:28;;;;;;;0.20;0.20;;;;;;;6.61;100.00;92682.94;2121804;27;20019;-81
2023/11/24 04:32:30;;;;;;;1.42;0.28;;;;;;;6.64;100.00;92692.78;2114317;28;20480;-80
2023/11/24 04:33:31;;;;;;;1.15;0.20;;;;;;;6.74;100.00;92699.81;2101948;28;20025;-80
2023/11/24 04:34:32;;;;;;;0.20;0.20;;;;;;;6.74;100.00;92689.19;2097975;28;20023;-78
2023/11/24 04:35:34;;;;;;;0.20;0.20;;;;;;;6.65;100.00;92688.97;2102177;28;20061;-79
2023/11/24 04:36:35;;;;;;;0.20;0.20;;;;;;;6.79;100.00;92696.72;2124814;27;20022;-80
2023/11/24 04:37:36;;;;;;;0.20;0.20;;;;;;;6.93;100.00;92702.97;2117727;27;20074;-80
2023/11/24 04:38:37;;;;;;;0.75;0.30;;;;;;;6.72;100.00;92686.22;2121198;27;20018;-79
2023/11/24 04:41:35;;;;;;;0.20;0.20;;;;;;;6.55;100.00;92690.59;2119839;27;20019;-79
2023/11/24 04:42:36;;;;;;;0.20;0.20;;;;;;;6.46;100.00;92679.00;2111191;28;20043;-78
2023/11/24 04:43:38;;;;;;;0.22;0.22;;;;;;;6.75;100.00;92681.97;2100998;28;20027;-81
2023/11/24 04:44:39;;;;;;;0.30;0.30;;;;;;;6.81;100.00;92680.41;2099323;28;20342;-79
2023/11/24 04:45:40;;;;;;;0.20;0.20;;;;;;;6.88;100.00;92695.47;2120724;27;20030;-80
2023/11/24 04:46:41;;;;;;;0.20;0.20;;;;;;;6.98;100.00;92686.56;2112637;28;20052;-78
2023/11/24 04:47:42;;;;;;;2.30;0.20;;;;;;;6.85;100.00;92691.72;2109941;28;20051;-79
2023/11/24 04:48:43;;;;;;;0.25;0.20;;;;;;;6.69;100.00;92696.88;2125058;27;20051;-78
2023/11/24 04:49:44;;;;;;;0.20;0.20;;;;;;;6.78;100.00;92694.47;2130076;27;20105;-80
2023/11/24 04:50:45;;;;;;;0.30;0.30;;;;;;;6.82;100.00;92692.50;2129492;27;20071;-81
2023/11/24 04:51:46;;;;;;;0.20;0.20;;;;;;;6.70;100.00;92690.41;2120082;27;20042;-80
2023/11/24 04:52:47;;;;;;;1.15;0.38;;;;;;;6.68;100.00;92695.38;2111738;28;20028;-80
2023/11/24 04:53:48;;;;;;;1.02;0.30;;;;;;;6.72;100.00;92686.22;2048780;28;20381;-79
2023/11/24 04:54:50;;;;;;;0.38;0.30;;;;;;;6.74;100.00;92680.50;2021708;28;20477;-79
2023/11/24 04:55:51;;;;;;;0.20;0.20;;;;;;;6.70;100.00;92680.53;2036277;27;20038;-78
2023/11/24 04:56:53;;;;;;;0.43;0.30;;;;;;;6.77;100.00;92687.66;2029356;28;20122;-79
2023/11/24 04:57:54;;;;;;;0.30;0.30;;;;;;;6.78;100.00;92684.59;2032801;28;20044;-79
2023/11/24 04:58:56;;;;;;;0.28;0.28;;;;;;;6.80;100.00;92679.66;2049353;28;20027;-80
2023/11/24 04:59:57;;;;;;;0.30;0.30;;;;;;;6.74;100.00;92675.19;2062175;27;20108;-78
2023/11/24 05:00:58;;;;;;;0.43;0.20;;;;;;;6.68;100.00;92674.13;2057820;27;20031;-79